Sea Isle City, NJ

5:18 PM EDT on August 24, 2016 (GMT -0400)
100 Block 38th St | | Change Station

Elev 16 ft 39.16 °N, 74.69 °W | Updated 3 minutes ago

Clear
Clear
81.5 °F
Feels Like 84 °F
N
6.8
Wind Variable Wind from South

Today
High -- | Low -- °F
--% Chance of Precip.
Yesterday
High -- | Low -- °F
Precip. -- in
Pressure 30.21 in
Visibility 10.0 miles
Clouds Clear
Heat Index 84 °F
Dew Point 66 °F
Humidity 60%
Rainfall 0.00 in
Snow Depth Not available.
6:20 AM 7:40 PM
Waning Gibbous, 53% visible
METAR KACY 242054Z 19009KT 10SM CLR 28/15 A3021
Pressure 30.21 in
Visibility 10.0 miles
Clouds Clear
Heat Index 84 °F
Dew Point 66 °F
Humidity 60%
Rainfall 0.00 in
Snow Depth Not available.
6:20 AM 7:40 PM
Waning Gibbous, 53% visible
METAR KACY 242054Z 19009KT 10SM CLR 28/15 A3021

10-Day Weather Forecast

Almanac

Astronomy

Aug. 24, 2016 Rise Set
Actual Time
Civil Twilight
Nautical Twilight
Astronomical Twilight
Moon
Length of Visible Light
Length of Day
Tomorrow will be .
, % of the Moon is Illuminated

Today's Extremes

State Highs State Lows

Community

WunderPhotos

Upload Photos

1,934,717 photos uploaded!

WunderBlog® & News

Nearby

Air Quality

  Air Quality AQ Index Pollutant
Not available.

Snow Depth

Station Depth Elevation

Earthquake Activity

City Distance Mag. Time & Date
Minimum magnitude displayed is 2.5.

Coastal Water Temperatures

Place Temperature

Stations

Nearby Weather Stations

Station Location Temp. Windchill Dew Point Humidity Wind Precip. Elev Updated Type
                   

Watches & Warnings

There are currently no watches in effect.